sensor_id;sensor_type;location;lat;lon;timestamp;temperature;humidity
14473;DHT22;7322;50.872;4.386;2023-09-18T00:02:25;27.40;99.90
14473;DHT22;7322;50.872;4.386;2023-09-18T00:04:53;27.40;99.90
14473;DHT22;7322;50.872;4.386;2023-09-18T00:07:24;27.40;99.90
14473;DHT22;7322;50.872;4.386;2023-09-18T00:09:50;27.40;99.90
14473;DHT22;7322;50.872;4.386;2023-09-18T00:12:18;27.40;99.90
14473;DHT22;7322;50.872;4.386;2023-09-18T00:14:48;27.40;99.90
14473;DHT22;7322;50.872;4.386;2023-09-18T00:17:15;27.40;99.90
14473;DHT22;7322;50.872;4.386;2023-09-18T00:19:42;27.40;99.90
14473;DHT22;7322;50.872;4.386;2023-09-18T00:22:09;27.40;99.90
14473;DHT22;7322;50.872;4.386;2023-09-18T00:24:38;27.30;99.90
14473;DHT22;7322;50.872;4.386;2023-09-18T00:27:07;27.30;99.90
14473;DHT22;7322;50.872;4.386;2023-09-18T00:29:35;27.30;99.90
14473;DHT22;7322;50.872;4.386;2023-09-18T00:32:02;27.30;99.90
14473;DHT22;7322;50.872;4.386;2023-09-18T00:34:29;27.30;99.90
14473;DHT22;7322;50.872;4.386;2023-09-18T00:36:58;27.30;99.90
14473;DHT22;7322;50.872;4.386;2023-09-18T00:39:25;27.30;99.90
14473;DHT22;7322;50.872;4.386;2023-09-18T00:41:54;27.30;99.90
14473;DHT22;7322;50.872;4.386;2023-09-18T00:44:22;27.20;99.90
14473;DHT22;7322;50.872;4.386;2023-09-18T00:46:57;27.20;99.90
14473;DHT22;7322;50.872;4.386;2023-09-18T00:49:33;27.30;99.90
14473;DHT22;7322;50.872;4.386;2023-09-18T00:52:04;27.20;99.90
14473;DHT22;7322;50.872;4.386;2023-09-18T00:54:34;27.20;99.90
14473;DHT22;7322;50.872;4.386;2023-09-18T00:57:04;27.20;99.90
14473;DHT22;7322;50.872;4.386;2023-09-18T00:59:34;27.10;99.90
14473;DHT22;7322;50.872;4.386;2023-09-18T01:02:05;27.10;99.90
14473;DHT22;7322;50.872;4.386;2023-09-18T01:04:33;27.20;99.90
14473;DHT22;7322;50.872;4.386;2023-09-18T01:07:01;27.10;99.90
14473;DHT22;7322;50.872;4.386;2023-09-18T01:09:30;27.10;99.90
14473;DHT22;7322;50.872;4.386;2023-09-18T01:12:03;27.10;99.90
14473;DHT22;7322;50.872;4.386;2023-09-18T01:14:38;27.10;99.90
14473;DHT22;7322;50.872;4.386;2023-09-18T01:17:10;27.10;99.90
14473;DHT22;7322;50.872;4.386;2023-09-18T01:19:48;27.10;99.90
14473;DHT22;7322;50.872;4.386;2023-09-18T01:22:30;27.10;99.90
14473;DHT22;7322;50.872;4.386;2023-09-18T01:24:59;27.10;99.90
14473;DHT22;7322;50.872;4.386;2023-09-18T01:27:28;27.10;99.90
14473;DHT22;7322;50.872;4.386;2023-09-18T01:29:58;27.10;99.90
14473;DHT22;7322;50.872;4.386;2023-09-18T01:32:30;27.10;99.90
14473;DHT22;7322;50.872;4.386;2023-09-18T01:35:05;27.20;99.90
14473;DHT22;7322;50.872;4.386;2023-09-18T01:37:37;27.10;99.90
14473;DHT22;7322;50.872;4.386;2023-09-18T01:40:07;27.10;99.90
14473;DHT22;7322;50.872;4.386;2023-09-18T01:42:35;27.20;99.90
14473;DHT22;7322;50.872;4.386;2023-09-18T01:45:04;27.10;99.90
14473;DHT22;7322;50.872;4.386;2023-09-18T01:47:39;27.20;99.90
14473;DHT22;7322;50.872;4.386;2023-09-18T01:50:08;27.20;99.90
14473;DHT22;7322;50.872;4.386;2023-09-18T01:52:45;27.20;99.90
14473;DHT22;7322;50.872;4.386;2023-09-18T01:55:18;27.20;99.90
14473;DHT22;7322;50.872;4.386;2023-09-18T01:57:46;27.20;99.90
14473;DHT22;7322;50.872;4.386;2023-09-18T02:00:15;27.20;99.90
14473;DHT22;7322;50.872;4.386;2023-09-18T02:02:44;27.20;99.90
14473;DHT22;7322;50.872;4.386;2023-09-18T02:05:17;27.20;99.90
14473;DHT22;7322;50.872;4.386;2023-09-18T02:07:46;27.30;99.90
14473;DHT22;7322;50.872;4.386;2023-09-18T02:10:13;27.20;99.90
14473;DHT22;7322;50.872;4.386;2023-09-18T02:12:40;27.20;99.90
14473;DHT22;7322;50.872;4.386;2023-09-18T02:15:07;27.20;99.90
14473;DHT22;7322;50.872;4.386;2023-09-18T02:17:38;27.20;99.90
14473;DHT22;7322;50.872;4.386;2023-09-18T02:20:08;27.20;99.90
14473;DHT22;7322;50.872;4.386;2023-09-18T02:22:39;27.30;99.90
14473;DHT22;7322;50.872;4.386;2023-09-18T02:25:08;27.30;99.90
14473;DHT22;7322;50.872;4.386;2023-09-18T02:27:36;27.30;99.90
14473;DHT22;7322;50.872;4.386;2023-09-18T02:30:07;27.30;99.90
14473;DHT22;7322;50.872;4.386;2023-09-18T02:32:35;27.30;99.90
14473;DHT22;7322;50.872;4.386;2023-09-18T02:35:02;27.30;99.90
14473;DHT22;7322;50.872;4.386;2023-09-18T02:37:29;27.30;99.90
14473;DHT22;7322;50.872;4.386;2023-09-18T02:39:56;27.30;99.90
14473;DHT22;7322;50.872;4.386;2023-09-18T02:42:25;27.30;99.90
14473;DHT22;7322;50.872;4.386;2023-09-18T02:44:52;27.30;99.90
14473;DHT22;7322;50.872;4.386;2023-09-18T02:47:21;27.30;99.90
14473;DHT22;7322;50.872;4.386;2023-09-18T02:49:48;27.30;99.90
14473;DHT22;7322;50.872;4.386;2023-09-18T02:52:19;27.30;99.90
14473;DHT22;7322;50.872;4.386;2023-09-18T02:54:48;27.30;99.90
14473;DHT22;7322;50.872;4.386;2023-09-18T02:57:16;27.30;99.90
14473;DHT22;7322;50.872;4.386;2023-09-18T02:59:44;27.20;99.90
14473;DHT22;7322;50.872;4.386;2023-09-18T03:02:11;27.30;99.90
14473;DHT22;7322;50.872;4.386;2023-09-18T03:04:38;27.30;99.90
14473;DHT22;7322;50.872;4.386;2023-09-18T03:07:07;27.30;99.90
14473;DHT22;7322;50.872;4.386;2023-09-18T03:09:34;27.30;99.90
14473;DHT22;7322;50.872;4.386;2023-09-18T03:12:01;27.20;99.90
14473;DHT22;7322;50.872;4.386;2023-09-18T03:14:28;27.20;99.90
14473;DHT22;7322;50.872;4.386;2023-09-18T03:16:57;27.20;99.90
14473;DHT22;7322;50.872;4.386;2023-09-18T03:19:24;27.20;99.90
14473;DHT22;7322;50.872;4.386;2023-09-18T03:21:52;27.20;99.90
14473;DHT22;7322;50.872;4.386;2023-09-18T03:24:19;27.20;99.90
14473;DHT22;7322;50.872;4.386;2023-09-18T03:26:46;27.20;99.90
14473;DHT22;7322;50.872;4.386;2023-09-18T03:29:14;27.20;99.90
14473;DHT22;7322;50.872;4.386;2023-09-18T03:31:41;27.20;99.90
14473;DHT22;7322;50.872;4.386;2023-09-18T03:34:10;27.20;99.90
14473;DHT22;7322;50.872;4.386;2023-09-18T03:36:37;27.20;99.90
14473;DHT22;7322;50.872;4.386;2023-09-18T03:39:04;27.20;99.90
14473;DHT22;7322;50.872;4.386;2023-09-18T03:41:31;27.20;99.90
14473;DHT22;7322;50.872;4.386;2023-09-18T03:44:00;27.20;99.90
14473;DHT22;7322;50.872;4.386;2023-09-18T03:46:27;27.10;99.90
14473;DHT22;7322;50.872;4.386;2023-09-18T03:48:54;27.10;99.90
14473;DHT22;7322;50.872;4.386;2023-09-18T03:51:24;27.10;99.90
14473;DHT22;7322;50.872;4.386;2023-09-18T03:53:51;27.10;99.90
14473;DHT22;7322;50.872;4.386;2023-09-18T03:56:18;27.10;99.90
14473;DHT22;7322;50.872;4.386;2023-09-18T03:58:45;27.10;99.90
14473;DHT22;7322;50.872;4.386;2023-09-18T04:01:15;27.00;99.90
14473;DHT22;7322;50.872;4.386;2023-09-18T04:03:42;27.00;99.90
14473;DHT22;7322;50.872;4.386;2023-09-18T04:06:10;27.00;99.90
14473;DHT22;7322;50.872;4.386;2023-09-18T04:08:38;27.00;99.90
14473;DHT22;7322;50.872;4.386;2023-09-18T04:11:06;27.00;99.90
14473;DHT22;7322;50.872;4.386;2023-09-18T04:13:35;27.00;99.90
14473;DHT22;7322;50.872;4.386;2023-09-18T04:16:05;27.00;99.90
14473;DHT22;7322;50.872;4.386;2023-09-18T04:18:33;27.00;99.90
14473;DHT22;7322;50.872;4.386;2023-09-18T04:21:01;27.00;99.90
14473;DHT22;7322;50.872;4.386;2023-09-18T04:23:29;27.00;99.90
14473;DHT22;7322;50.872;4.386;2023-09-18T04:26:05;27.10;99.90
14473;DHT22;7322;50.872;4.386;2023-09-18T04:28:38;27.10;99.90
14473;DHT22;7322;50.872;4.386;2023-09-18T04:31:05;27.00;99.90
14473;DHT22;7322;50.872;4.386;2023-09-18T04:33:32;27.00;99.90
14473;DHT22;7322;50.872;4.386;2023-09-18T04:35:59;27.00;99.90
14473;DHT22;7322;50.872;4.386;2023-09-18T04:38:26;27.00;99.90
14473;DHT22;7322;50.872;4.386;2023-09-18T04:40:58;27.00;99.90
14473;DHT22;7322;50.872;4.386;2023-09-18T04:43:26;27.10;99.90
14473;DHT22;7322;50.872;4.386;2023-09-18T04:46:02;27.10;99.90
14473;DHT22;7322;50.872;4.386;2023-09-18T04:48:30;27.10;99.90
14473;DHT22;7322;50.872;4.386;2023-09-18T04:50:59;27.00;99.90
14473;DHT22;7322;50.872;4.386;2023-09-18T04:56:39;27.00;99.90
14473;DHT22;7322;50.872;4.386;2023-09-18T04:59:10;27.00;99.90
14473;DHT22;7322;50.872;4.386;2023-09-18T05:01:38;27.00;99.90
14473;DHT22;7322;50.872;4.386;2023-09-18T05:04:05;26.90;99.90
14473;DHT22;7322;50.872;4.386;2023-09-18T05:06:32;26.90;99.90
14473;DHT22;7322;50.872;4.386;2023-09-18T05:09:00;26.90;99.90
14473;DHT22;7322;50.872;4.386;2023-09-18T05:11:29;26.80;99.90
14473;DHT22;7322;50.872;4.386;2023-09-18T05:13:58;26.80;99.90
14473;DHT22;7322;50.872;4.386;2023-09-18T05:16:33;26.80;99.90
14473;DHT22;7322;50.872;4.386;2023-09-18T05:19:03;26.80;99.90
14473;DHT22;7322;50.872;4.386;2023-09-18T05:21:42;26.80;99.90
14473;DHT22;7322;50.872;4.386;2023-09-18T05:24:37;26.70;99.90
14473;DHT22;7322;50.872;4.386;2023-09-18T05:27:04;26.70;99.90
14473;DHT22;7322;50.872;4.386;2023-09-18T05:29:33;26.60;99.90
14473;DHT22;7322;50.872;4.386;2023-09-18T05:32:15;26.60;99.90
14473;DHT22;7322;50.872;4.386;2023-09-18T05:35:17;26.60;99.90
14473;DHT22;7322;50.872;4.386;2023-09-18T05:38:02;26.60;99.90
14473;DHT22;7322;50.872;4.386;2023-09-18T05:40:31;26.50;99.90
14473;DHT22;7322;50.872;4.386;2023-09-18T05:43:12;26.50;99.90
14473;DHT22;7322;50.872;4.386;2023-09-18T05:45:41;26.50;99.90
14473;DHT22;7322;50.872;4.386;2023-09-18T05:48:11;26.40;99.90
14473;DHT22;7322;50.872;4.386;2023-09-18T05:50:42;26.40;99.90
14473;DHT22;7322;50.872;4.386;2023-09-18T05:53:09;26.40;99.90
14473;DHT22;7322;50.872;4.386;2023-09-18T05:58:56;26.40;99.90
14473;DHT22;7322;50.872;4.386;2023-09-18T06:01:25;26.40;99.90
14473;DHT22;7322;50.872;4.386;2023-09-18T06:03:57;26.40;99.90
14473;DHT22;7322;50.872;4.386;2023-09-18T06:06:45;26.30;99.90
14473;DHT22;7322;50.872;4.386;2023-09-18T06:09:40;26.30;99.90
14473;DHT22;7322;50.872;4.386;2023-09-18T06:15:50;26.30;99.90
14473;DHT22;7322;50.872;4.386;2023-09-18T06:18:35;26.30;99.90
14473;DHT22;7322;50.872;4.386;2023-09-18T06:21:24;26.30;99.90
14473;DHT22;7322;50.872;4.386;2023-09-18T06:24:14;26.30;99.90
14473;DHT22;7322;50.872;4.386;2023-09-18T06:29:36;26.30;99.90
14473;DHT22;7322;50.872;4.386;2023-09-18T06:32:13;26.20;99.90
14473;DHT22;7322;50.872;4.386;2023-09-18T06:34:47;26.20;99.90
14473;DHT22;7322;50.872;4.386;2023-09-18T06:37:15;26.20;99.90
14473;DHT22;7322;50.872;4.386;2023-09-18T06:39:52;26.20;99.90
14473;DHT22;7322;50.872;4.386;2023-09-18T06:42:25;26.10;99.90
14473;DHT22;7322;50.872;4.386;2023-09-18T06:45:08;26.10;99.90
14473;DHT22;7322;50.872;4.386;2023-09-18T06:47:43;26.10;99.90
14473;DHT22;7322;50.872;4.386;2023-09-18T06:50:11;26.10;99.90
14473;DHT22;7322;50.872;4.386;2023-09-18T06:52:44;26.10;99.90
14473;DHT22;7322;50.872;4.386;2023-09-18T06:55:13;26.10;99.90
14473;DHT22;7322;50.872;4.386;2023-09-18T06:57:50;26.00;99.90
14473;DHT22;7322;50.872;4.386;2023-09-18T07:00:17;26.00;99.90
14473;DHT22;7322;50.872;4.386;2023-09-18T07:03:00;25.90;99.90
14473;DHT22;7322;50.872;4.386;2023-09-18T07:05:37;26.00;99.90
14473;DHT22;7322;50.872;4.386;2023-09-18T07:08:13;26.00;99.90
14473;DHT22;7322;50.872;4.386;2023-09-18T07:10:51;26.00;99.90
14473;DHT22;7322;50.872;4.386;2023-09-18T07:13:27;26.00;99.90
14473;DHT22;7322;50.872;4.386;2023-09-18T07:15:55;26.00;99.90
14473;DHT22;7322;50.872;4.386;2023-09-18T07:18:23;26.00;99.90
14473;DHT22;7322;50.872;4.386;2023-09-18T07:21:00;25.90;99.90
14473;DHT22;7322;50.872;4.386;2023-09-18T07:23:43;26.00;99.90
14473;DHT22;7322;50.872;4.386;2023-09-18T07:26:17;26.00;99.90
14473;DHT22;7322;50.872;4.386;2023-09-18T07:28:53;26.00;99.90
14473;DHT22;7322;50.872;4.386;2023-09-18T07:31:21;26.00;99.90
14473;DHT22;7322;50.872;4.386;2023-09-18T07:33:50;26.00;99.90
14473;DHT22;7322;50.872;4.386;2023-09-18T07:36:20;26.00;99.90
14473;DHT22;7322;50.872;4.386;2023-09-18T07:39:01;26.00;99.90
14473;DHT22;7322;50.872;4.386;2023-09-18T07:41:31;26.00;99.90
14473;DHT22;7322;50.872;4.386;2023-09-18T07:44:05;26.00;99.90
14473;DHT22;7322;50.872;4.386;2023-09-18T07:46:46;26.10;99.90
14473;DHT22;7322;50.872;4.386;2023-09-18T07:49:25;26.00;99.90
14473;DHT22;7322;50.872;4.386;2023-09-18T07:51:53;26.10;99.90
14473;DHT22;7322;50.872;4.386;2023-09-18T07:54:31;26.10;99.90
14473;DHT22;7322;50.872;4.386;2023-09-18T07:57:07;26.10;99.90
14473;DHT22;7322;50.872;4.386;2023-09-18T07:59:40;26.20;99.90
14473;DHT22;7322;50.872;4.386;2023-09-18T08:02:25;26.20;99.90
14473;DHT22;7322;50.872;4.386;2023-09-18T08:04:55;26.20;99.90
14473;DHT22;7322;50.872;4.386;2023-09-18T08:07:25;26.20;99.90
14473;DHT22;7322;50.872;4.386;2023-09-18T08:09:57;26.20;99.90
14473;DHT22;7322;50.872;4.386;2023-09-18T08:12:25;26.20;99.90
14473;DHT22;7322;50.872;4.386;2023-09-18T08:14:54;26.20;99.90
14473;DHT22;7322;50.872;4.386;2023-09-18T08:17:25;26.20;99.90
14473;DHT22;7322;50.872;4.386;2023-09-18T08:20:00;26.10;99.90
14473;DHT22;7322;50.872;4.386;2023-09-18T08:22:31;26.10;99.90
14473;DHT22;7322;50.872;4.386;2023-09-18T08:25:08;26.10;99.90
14473;DHT22;7322;50.872;4.386;2023-09-18T08:27:43;26.10;99.90
14473;DHT22;7322;50.872;4.386;2023-09-18T08:30:13;26.10;99.90
14473;DHT22;7322;50.872;4.386;2023-09-18T08:32:53;26.10;99.90
14473;DHT22;7322;50.872;4.386;2023-09-18T08:35:26;26.10;99.90
14473;DHT22;7322;50.872;4.386;2023-09-18T08:37:55;26.10;99.90
14473;DHT22;7322;50.872;4.386;2023-09-18T08:40:24;26.00;99.90
14473;DHT22;7322;50.872;4.386;2023-09-18T08:42:58;26.00;99.90
14473;DHT22;7322;50.872;4.386;2023-09-18T08:45:40;26.10;99.90
14473;DHT22;7322;50.872;4.386;2023-09-18T08:48:11;26.00;99.90
14473;DHT22;7322;50.872;4.386;2023-09-18T08:51:10;26.00;99.90
14473;DHT22;7322;50.872;4.386;2023-09-18T08:53:56;26.00;99.90
14473;DHT22;7322;50.872;4.386;2023-09-18T08:56:42;26.00;99.90
14473;DHT22;7322;50.872;4.386;2023-09-18T08:59:11;26.00;99.90
14473;DHT22;7322;50.872;4.386;2023-09-18T09:01:41;26.00;99.90
14473;DHT22;7322;50.872;4.386;2023-09-18T09:04:20;26.00;99.90
14473;DHT22;7322;50.872;4.386;2023-09-18T09:06:49;26.00;99.90
14473;DHT22;7322;50.872;4.386;2023-09-18T09:09:25;26.00;99.90
14473;DHT22;7322;50.872;4.386;2023-09-18T09:11:57;26.00;99.90
14473;DHT22;7322;50.872;4.386;2023-09-18T09:14:25;26.00;99.90
14473;DHT22;7322;50.872;4.386;2023-09-18T09:16:55;26.00;99.90
14473;DHT22;7322;50.872;4.386;2023-09-18T09:19:30;26.00;99.90
14473;DHT22;7322;50.872;4.386;2023-09-18T09:22:08;26.10;99.90
14473;DHT22;7322;50.872;4.386;2023-09-18T09:24:39;26.10;99.90
14473;DHT22;7322;50.872;4.386;2023-09-18T09:27:15;26.10;99.90
14473;DHT22;7322;50.872;4.386;2023-09-18T09:29:57;26.10;99.90
14473;DHT22;7322;50.872;4.386;2023-09-18T09:32:31;26.10;99.90
14473;DHT22;7322;50.872;4.386;2023-09-18T09:35:00;26.10;99.90
14473;DHT22;7322;50.872;4.386;2023-09-18T09:37:37;26.10;99.90
14473;DHT22;7322;50.872;4.386;2023-09-18T09:40:06;26.10;99.90
14473;DHT22;7322;50.872;4.386;2023-09-18T09:42:40;26.10;99.90
14473;DHT22;7322;50.872;4.386;2023-09-18T09:45:16;26.10;99.90
14473;DHT22;7322;50.872;4.386;2023-09-18T09:47:48;26.10;99.90
14473;DHT22;7322;50.872;4.386;2023-09-18T09:50:25;26.10;99.90
14473;DHT22;7322;50.872;4.386;2023-09-18T09:52:54;26.10;99.90
14473;DHT22;7322;50.872;4.386;2023-09-18T09:55:25;26.00;99.90
14473;DHT22;7322;50.872;4.386;2023-09-18T09:58:13;26.00;99.90
14473;DHT22;7322;50.872;4.386;2023-09-18T10:00:56;26.10;99.90
14473;DHT22;7322;50.872;4.386;2023-09-18T10:03:25;26.00;99.90
14473;DHT22;7322;50.872;4.386;2023-09-18T10:05:52;26.00;99.90
14473;DHT22;7322;50.872;4.386;2023-09-18T10:08:26;26.00;99.90
14473;DHT22;7322;50.872;4.386;2023-09-18T10:11:13;26.00;99.90
14473;DHT22;7322;50.872;4.386;2023-09-18T10:13:51;26.10;99.90
14473;DHT22;7322;50.872;4.386;2023-09-18T10:16:30;26.10;99.90
14473;DHT22;7322;50.872;4.386;2023-09-18T10:19:06;26.10;99.90
14473;DHT22;7322;50.872;4.386;2023-09-18T10:21:41;26.00;99.90
14473;DHT22;7322;50.872;4.386;2023-09-18T10:24:26;26.00;99.90
14473;DHT22;7322;50.872;4.386;2023-09-18T10:26:57;26.00;99.90
14473;DHT22;7322;50.872;4.386;2023-09-18T10:29:29;26.00;99.90
14473;DHT22;7322;50.872;4.386;2023-09-18T10:32:09;26.00;99.90
14473;DHT22;7322;50.872;4.386;2023-09-18T10:34:54;26.00;99.90
14473;DHT22;7322;50.872;4.386;2023-09-18T10:37:22;26.00;99.90
14473;DHT22;7322;50.872;4.386;2023-09-18T10:39:58;26.00;99.90
14473;DHT22;7322;50.872;4.386;2023-09-18T10:42:27;26.00;99.90
14473;DHT22;7322;50.872;4.386;2023-09-18T10:45:06;26.00;99.90
14473;DHT22;7322;50.872;4.386;2023-09-18T10:47:45;26.00;99.90
14473;DHT22;7322;50.872;4.386;2023-09-18T10:50:27;26.00;99.90
14473;DHT22;7322;50.872;4.386;2023-09-18T10:52:57;26.00;99.90
14473;DHT22;7322;50.872;4.386;2023-09-18T10:55:25;25.90;99.90
14473;DHT22;7322;50.872;4.386;2023-09-18T10:57:56;25.90;99.90
14473;DHT22;7322;50.872;4.386;2023-09-18T11:00:28;25.90;99.90
14473;DHT22;7322;50.872;4.386;2023-09-18T11:03:13;26.00;99.90
14473;DHT22;7322;50.872;4.386;2023-09-18T11:05:45;25.90;99.90
14473;DHT22;7322;50.872;4.386;2023-09-18T11:08:35;25.90;99.90
14473;DHT22;7322;50.872;4.386;2023-09-18T11:11:10;25.90;99.90
14473;DHT22;7322;50.872;4.386;2023-09-18T11:13:41;25.90;99.90
14473;DHT22;7322;50.872;4.386;2023-09-18T11:16:19;25.90;99.90
14473;DHT22;7322;50.872;4.386;2023-09-18T11:19:17;26.00;99.90
14473;DHT22;7322;50.872;4.386;2023-09-18T11:22:07;26.00;99.90
14473;DHT22;7322;50.872;4.386;2023-09-18T11:24:42;26.00;99.90
14473;DHT22;7322;50.872;4.386;2023-09-18T11:27:09;26.00;99.90
14473;DHT22;7322;50.872;4.386;2023-09-18T11:29:37;26.00;99.90
14473;DHT22;7322;50.872;4.386;2023-09-18T11:32:14;26.00;99.90
14473;DHT22;7322;50.872;4.386;2023-09-18T11:34:48;26.10;99.90
14473;DHT22;7322;50.872;4.386;2023-09-18T11:37:26;26.10;99.90
14473;DHT22;7322;50.872;4.386;2023-09-18T11:40:04;26.00;99.90
14473;DHT22;7322;50.872;4.386;2023-09-18T11:43:21;26.00;99.90
14473;DHT22;7322;50.872;4.386;2023-09-18T11:46:10;26.10;99.90
14473;DHT22;7322;50.872;4.386;2023-09-18T11:48:49;26.10;99.90
14473;DHT22;7322;50.872;4.386;2023-09-18T11:51:22;26.10;99.90
14473;DHT22;7322;50.872;4.386;2023-09-18T11:53:56;26.10;99.90
14473;DHT22;7322;50.872;4.386;2023-09-18T11:56:24;26.10;99.90
14473;DHT22;7322;50.872;4.386;2023-09-18T11:58:59;26.10;99.90
14473;DHT22;7322;50.872;4.386;2023-09-18T12:01:38;26.20;99.90
14473;DHT22;7322;50.872;4.386;2023-09-18T12:04:13;26.20;99.90
14473;DHT22;7322;50.872;4.386;2023-09-18T12:06:48;26.20;99.90
14473;DHT22;7322;50.872;4.386;2023-09-18T12:09:15;26.20;99.90
14473;DHT22;7322;50.872;4.386;2023-09-18T12:11:42;26.20;99.90
14473;DHT22;7322;50.872;4.386;2023-09-18T12:14:18;26.20;99.90
14473;DHT22;7322;50.872;4.386;2023-09-18T12:16:51;26.30;99.90
14473;DHT22;7322;50.872;4.386;2023-09-18T12:19:20;26.30;99.90
14473;DHT22;7322;50.872;4.386;2023-09-18T12:21:55;26.40;99.90
14473;DHT22;7322;50.872;4.386;2023-09-18T12:24:23;26.40;99.90
14473;DHT22;7322;50.872;4.386;2023-09-18T12:26:55;26.40;99.90
14473;DHT22;7322;50.872;4.386;2023-09-18T12:29:28;26.40;99.90
14473;DHT22;7322;50.872;4.386;2023-09-18T12:31:56;26.40;99.90
14473;DHT22;7322;50.872;4.386;2023-09-18T12:34:25;26.50;99.90
14473;DHT22;7322;50.872;4.386;2023-09-18T12:36:56;26.50;99.90
14473;DHT22;7322;50.872;4.386;2023-09-18T12:39:32;26.50;99.90
14473;DHT22;7322;50.872;4.386;2023-09-18T12:42:00;26.50;99.90
14473;DHT22;7322;50.872;4.386;2023-09-18T12:44:45;26.40;99.90
14473;DHT22;7322;50.872;4.386;2023-09-18T12:47:22;26.50;99.90
14473;DHT22;7322;50.872;4.386;2023-09-18T12:50:03;26.50;99.90
14473;DHT22;7322;50.872;4.386;2023-09-18T12:52:40;26.60;99.90
14473;DHT22;7322;50.872;4.386;2023-09-18T12:55:24;26.60;99.90
14473;DHT22;7322;50.872;4.386;2023-09-18T12:57:53;26.60;99.90
14473;DHT22;7322;50.872;4.386;2023-09-18T13:00:27;26.50;99.90
14473;DHT22;7322;50.872;4.386;2023-09-18T13:02:56;26.60;99.90
14473;DHT22;7322;50.872;4.386;2023-09-18T13:05:27;26.60;99.90
14473;DHT22;7322;50.872;4.386;2023-09-18T13:08:02;26.60;99.90
14473;DHT22;7322;50.872;4.386;2023-09-18T13:10:45;26.60;99.90
14473;DHT22;7322;50.872;4.386;2023-09-18T13:13:25;26.60;99.90
14473;DHT22;7322;50.872;4.386;2023-09-18T13:15:56;26.60;99.90
14473;DHT22;7322;50.872;4.386;2023-09-18T13:18:25;26.60;99.90
14473;DHT22;7322;50.872;4.386;2023-09-18T13:21:09;26.60;99.90
14473;DHT22;7322;50.872;4.386;2023-09-18T13:23:48;26.60;99.90
14473;DHT22;7322;50.872;4.386;2023-09-18T13:26:24;26.70;99.90
14473;DHT22;7322;50.872;4.386;2023-09-18T13:28:58;26.60;99.90
14473;DHT22;7322;50.872;4.386;2023-09-18T13:31:26;26.60;99.90
14473;DHT22;7322;50.872;4.386;2023-09-18T13:33:55;26.60;99.90
14473;DHT22;7322;50.872;4.386;2023-09-18T13:36:27;26.60;99.90
14473;DHT22;7322;50.872;4.386;2023-09-18T13:39:04;26.60;99.90
14473;DHT22;7322;50.872;4.386;2023-09-18T13:41:41;26.60;99.90
14473;DHT22;7322;50.872;4.386;2023-09-18T13:44:09;26.60;99.90
14473;DHT22;7322;50.872;4.386;2023-09-18T13:46:38;26.70;99.90
14473;DHT22;7322;50.872;4.386;2023-09-18T13:49:22;26.70;99.90
14473;DHT22;7322;50.872;4.386;2023-09-18T13:51:52;26.70;99.90
14473;DHT22;7322;50.872;4.386;2023-09-18T13:54:25;26.70;99.90
14473;DHT22;7322;50.872;4.386;2023-09-18T13:57:05;26.70;99.90
14473;DHT22;7322;50.872;4.386;2023-09-18T13:59:43;26.70;99.90
14473;DHT22;7322;50.872;4.386;2023-09-18T14:02:13;26.70;99.90
14473;DHT22;7322;50.872;4.386;2023-09-18T14:04:42;26.70;99.90
14473;DHT22;7322;50.872;4.386;2023-09-18T14:07:13;26.70;99.90
14473;DHT22;7322;50.872;4.386;2023-09-18T14:09:58;26.70;99.90
14473;DHT22;7322;50.872;4.386;2023-09-18T14:15:55;26.70;99.90
14473;DHT22;7322;50.872;4.386;2023-09-18T14:18:25;26.70;99.90
14473;DHT22;7322;50.872;4.386;2023-09-18T14:20:54;26.70;99.90
14473;DHT22;7322;50.872;4.386;2023-09-18T14:23:24;26.70;99.90
14473;DHT22;7322;50.872;4.386;2023-09-18T14:25:55;26.70;99.90
14473;DHT22;7322;50.872;4.386;2023-09-18T14:28:23;26.70;99.90
14473;DHT22;7322;50.872;4.386;2023-09-18T14:30:51;26.70;99.90
14473;DHT22;7322;50.872;4.386;2023-09-18T14:33:19;26.70;99.90
14473;DHT22;7322;50.872;4.386;2023-09-18T14:35:47;26.70;99.90
14473;DHT22;7322;50.872;4.386;2023-09-18T14:38:26;26.70;99.90
14473;DHT22;7322;50.872;4.386;2023-09-18T14:41:05;26.70;99.90
14473;DHT22;7322;50.872;4.386;2023-09-18T14:46:49;26.60;99.90
14473;DHT22;7322;50.872;4.386;2023-09-18T14:52:55;26.30;99.90
14473;DHT22;7322;50.872;4.386;2023-09-18T14:55:24;26.10;99.90
14473;DHT22;7322;50.872;4.386;2023-09-18T14:58:02;26.00;99.90
14473;DHT22;7322;50.872;4.386;2023-09-18T15:03:22;26.10;99.90
14473;DHT22;7322;50.872;4.386;2023-09-18T15:06:11;26.00;99.90
14473;DHT22;7322;50.872;4.386;2023-09-18T15:11:51;26.00;99.90
14473;DHT22;7322;50.872;4.386;2023-09-18T15:14:24;26.00;99.90
14473;DHT22;7322;50.872;4.386;2023-09-18T15:16:55;26.00;99.90
14473;DHT22;7322;50.872;4.386;2023-09-18T15:19:50;26.10;99.90
14473;DHT22;7322;50.872;4.386;2023-09-18T15:22:34;26.10;99.90
14473;DHT22;7322;50.872;4.386;2023-09-18T15:28:30;26.10;99.90
14473;DHT22;7322;50.872;4.386;2023-09-18T15:30:57;26.10;99.90
14473;DHT22;7322;50.872;4.386;2023-09-18T15:33:25;26.00;99.90
14473;DHT22;7322;50.872;4.386;2023-09-18T15:35:59;26.00;99.90
14473;DHT22;7322;50.872;4.386;2023-09-18T15:38:29;26.00;99.90
14473;DHT22;7322;50.872;4.386;2023-09-18T15:40:57;26.10;99.90
14473;DHT22;7322;50.872;4.386;2023-09-18T15:43:34;26.10;99.90
14473;DHT22;7322;50.872;4.386;2023-09-18T15:46:01;26.10;99.90
14473;DHT22;7322;50.872;4.386;2023-09-18T15:48:28;26.10;99.90
14473;DHT22;7322;50.872;4.386;2023-09-18T15:50:56;26.10;99.90
14473;DHT22;7322;50.872;4.386;2023-09-18T15:53:28;26.10;99.90
14473;DHT22;7322;50.872;4.386;2023-09-18T15:55:56;26.10;99.90
14473;DHT22;7322;50.872;4.386;2023-09-18T15:58:24;26.10;99.90
14473;DHT22;7322;50.872;4.386;2023-09-18T16:01:14;26.10;99.90
14473;DHT22;7322;50.872;4.386;2023-09-18T16:03:55;26.10;99.90
14473;DHT22;7322;50.872;4.386;2023-09-18T16:06:23;26.10;99.90
14473;DHT22;7322;50.872;4.386;2023-09-18T16:09:08;26.10;99.90
14473;DHT22;7322;50.872;4.386;2023-09-18T16:11:41;26.10;99.90
14473;DHT22;7322;50.872;4.386;2023-09-18T16:14:22;26.10;99.90
14473;DHT22;7322;50.872;4.386;2023-09-18T16:17:06;26.10;99.90
14473;DHT22;7322;50.872;4.386;2023-09-18T16:19:33;26.10;99.90
14473;DHT22;7322;50.872;4.386;2023-09-18T16:25:25;26.10;99.90
14473;DHT22;7322;50.872;4.386;2023-09-18T16:28:00;26.00;99.90
14473;DHT22;7322;50.872;4.386;2023-09-18T16:30:44;26.00;99.90
14473;DHT22;7322;50.872;4.386;2023-09-18T16:33:15;26.00;99.90
14473;DHT22;7322;50.872;4.386;2023-09-18T16:35:42;26.00;99.90
14473;DHT22;7322;50.872;4.386;2023-09-18T16:38:11;26.10;99.90
14473;DHT22;7322;50.872;4.386;2023-09-18T16:40:55;26.10;99.90
14473;DHT22;7322;50.872;4.386;2023-09-18T16:43:32;26.10;99.90
14473;DHT22;7322;50.872;4.386;2023-09-18T16:46:08;26.20;99.90
14473;DHT22;7322;50.872;4.386;2023-09-18T16:48:48;26.20;99.90
14473;DHT22;7322;50.872;4.386;2023-09-18T16:51:30;26.30;99.90
14473;DHT22;7322;50.872;4.386;2023-09-18T16:54:05;26.30;99.90
14473;DHT22;7322;50.872;4.386;2023-09-18T16:56:43;26.20;99.90
14473;DHT22;7322;50.872;4.386;2023-09-18T16:59:18;26.30;99.90